sensor_id;sensor_type;location;lat;lon;timestamp;pressure;altitude;pressure_sealevel;temperature;humidity
9261;BME280;4667;42.726;23.252;2023-05-24T10:10:35;95025.16;;;31.87;nan
9261;BME280;4667;42.726;23.252;2023-05-24T10:13:02;95012.69;;;32.01;nan
9261;BME280;4667;42.726;23.252;2023-05-24T10:15:29;95014.34;;;32.10;nan
9261;BME280;4667;42.726;23.252;2023-05-24T10:17:56;95011.09;;;32.06;nan
9261;BME280;4667;42.726;23.252;2023-05-24T10:20:24;95008.16;;;32.17;nan
9261;BME280;4667;42.726;23.252;2023-05-24T10:22:52;95007.88;;;32.60;nan
9261;BME280;4667;42.726;23.252;2023-05-24T10:25:21;95011.72;;;32.17;nan
9261;BME280;4667;42.726;23.252;2023-05-24T10:27:53;95004.41;;;32.27;nan
9261;BME280;4667;42.726;23.252;2023-05-24T10:30:25;95006.69;;;32.42;nan
9261;BME280;4667;42.726;23.252;2023-05-24T10:32:56;95001.25;;;32.89;nan
9261;BME280;4667;42.726;23.252;2023-05-24T10:35:23;95001.47;;;32.91;nan
9261;BME280;4667;42.726;23.252;2023-05-24T10:37:52;94997.13;;;33.03;nan
9261;BME280;4667;42.726;23.252;2023-05-24T10:40:21;94994.84;;;33.15;nan
9261;BME280;4667;42.726;23.252;2023-05-24T10:42:51;94990.22;;;33.31;nan
9261;BME280;4667;42.726;23.252;2023-05-24T10:45:31;94988.69;;;33.43;nan
9261;BME280;4667;42.726;23.252;2023-05-24T10:48:01;94986.09;;;33.45;nan
9261;BME280;4667;42.726;23.252;2023-05-24T10:50:33;94976.81;;;33.37;nan
9261;BME280;4667;42.726;23.252;2023-05-24T10:53:12;94986.56;;;33.36;nan
9261;BME280;4667;42.726;23.252;2023-05-24T10:55:50;94978.47;;;32.66;nan
9261;BME280;4667;42.726;23.252;2023-05-24T10:58:19;94981.28;;;33.06;nan
9261;BME280;4667;42.726;23.252;2023-05-24T11:00:50;94975.13;;;32.94;nan
9261;BME280;4667;42.726;23.252;2023-05-24T11:03:17;94968.22;;;32.82;nan
9261;BME280;4667;42.726;23.252;2023-05-24T11:05:50;94972.00;;;33.24;nan
9261;BME280;4667;42.726;23.252;2023-05-24T11:08:22;94972.06;;;33.32;nan
9261;BME280;4667;42.726;23.252;2023-05-24T11:10:49;94971.34;;;33.18;nan
9261;BME280;4667;42.726;23.252;2023-05-24T11:13:19;94965.69;;;33.31;nan
9261;BME280;4667;42.726;23.252;2023-05-24T11:15:49;94965.63;;;33.24;nan
9261;BME280;4667;42.726;23.252;2023-05-24T11:18:16;94965.47;;;33.42;nan
9261;BME280;4667;42.726;23.252;2023-05-24T11:20:47;94969.06;;;33.03;nan
9261;BME280;4667;42.726;23.252;2023-05-24T11:23:15;94959.25;;;33.23;nan
9261;BME280;4667;42.726;23.252;2023-05-24T11:25:42;94957.50;;;33.33;nan
9261;BME280;4667;42.726;23.252;2023-05-24T11:28:11;94957.69;;;33.48;nan
9261;BME280;4667;42.726;23.252;2023-05-24T11:30:40;94960.81;;;33.45;nan
9261;BME280;4667;42.726;23.252;2023-05-24T11:33:14;94960.69;;;33.50;nan
9261;BME280;4667;42.726;23.252;2023-05-24T11:35:40;94957.28;;;33.65;nan
9261;BME280;4667;42.726;23.252;2023-05-24T11:38:09;94950.41;;;33.53;nan
9261;BME280;4667;42.726;23.252;2023-05-24T11:40:37;94952.59;;;33.81;nan
9261;BME280;4667;42.726;23.252;2023-05-24T11:43:10;94950.06;;;33.56;nan
9261;BME280;4667;42.726;23.252;2023-05-24T11:45:40;94944.13;;;33.60;nan
9261;BME280;4667;42.726;23.252;2023-05-24T11:48:07;94947.38;;;33.51;nan
9261;BME280;4667;42.726;23.252;2023-05-24T11:50:37;94940.47;;;33.52;nan
9261;BME280;4667;42.726;23.252;2023-05-24T11:53:05;94936.88;;;33.31;nan
9261;BME280;4667;42.726;23.252;2023-05-24T11:55:32;94940.31;;;33.37;nan
9261;BME280;4667;42.726;23.252;2023-05-24T11:58:00;94939.28;;;33.00;nan
9261;BME280;4667;42.726;23.252;2023-05-24T12:00:31;94930.94;;;33.21;nan
9261;BME280;4667;42.726;23.252;2023-05-24T12:02:59;94931.59;;;33.27;nan
9261;BME280;4667;42.726;23.252;2023-05-24T12:05:31;94935.25;;;33.56;nan
9261;BME280;4667;42.726;23.252;2023-05-24T12:08:03;94938.03;;;33.69;nan
9261;BME280;4667;42.726;23.252;2023-05-24T12:10:31;94930.66;;;33.45;nan
9261;BME280;4667;42.726;23.252;2023-05-24T12:12:58;94932.03;;;33.86;nan
9261;BME280;4667;42.726;23.252;2023-05-24T12:15:26;94921.59;;;34.15;nan
9261;BME280;4667;42.726;23.252;2023-05-24T12:17:52;94928.97;;;34.46;nan
9261;BME280;4667;42.726;23.252;2023-05-24T12:20:21;94927.56;;;34.60;nan
9261;BME280;4667;42.726;23.252;2023-05-24T12:22:48;94920.75;;;34.76;nan
9261;BME280;4667;42.726;23.252;2023-05-24T12:25:16;94920.28;;;34.36;nan
9261;BME280;4667;42.726;23.252;2023-05-24T12:27:45;94918.88;;;34.01;nan
9261;BME280;4667;42.726;23.252;2023-05-24T12:30:14;94911.00;;;33.45;nan
9261;BME280;4667;42.726;23.252;2023-05-24T12:32:45;94907.81;;;32.68;nan
9261;BME280;4667;42.726;23.252;2023-05-24T12:35:12;94902.47;;;33.04;nan
9261;BME280;4667;42.726;23.252;2023-05-24T12:37:40;94903.03;;;32.89;nan
9261;BME280;4667;42.726;23.252;2023-05-24T12:40:14;94900.69;;;33.14;nan
9261;BME280;4667;42.726;23.252;2023-05-24T12:42:42;94896.38;;;33.26;nan
9261;BME280;4667;42.726;23.252;2023-05-24T12:45:10;94894.06;;;33.38;nan
9261;BME280;4667;42.726;23.252;2023-05-24T12:47:37;94890.63;;;33.86;nan
9261;BME280;4667;42.726;23.252;2023-05-24T12:50:04;94891.25;;;33.92;nan
9261;BME280;4667;42.726;23.252;2023-05-24T12:52:31;94895.38;;;33.71;nan
9261;BME280;4667;42.726;23.252;2023-05-24T12:54:59;94886.97;;;33.99;nan
9261;BME280;4667;42.726;23.252;2023-05-24T12:57:26;94887.38;;;34.24;nan
9261;BME280;4667;42.726;23.252;2023-05-24T12:59:53;94877.00;;;33.70;nan
9261;BME280;4667;42.726;23.252;2023-05-24T13:02:19;94882.84;;;34.21;nan
9261;BME280;4667;42.726;23.252;2023-05-24T13:04:46;94877.34;;;34.36;nan
9261;BME280;4667;42.726;23.252;2023-05-24T13:07:13;94880.25;;;34.51;nan
9261;BME280;4667;42.726;23.252;2023-05-24T13:09:39;94883.56;;;34.70;nan
9261;BME280;4667;42.726;23.252;2023-05-24T13:12:08;94871.03;;;34.43;nan
9261;BME280;4667;42.726;23.252;2023-05-24T13:14:35;94867.91;;;34.05;nan
9261;BME280;4667;42.726;23.252;2023-05-24T13:17:02;94867.91;;;34.26;nan
9261;BME280;4667;42.726;23.252;2023-05-24T13:19:29;94874.91;;;33.91;nan
9261;BME280;4667;42.726;23.252;2023-05-24T13:21:56;94864.69;;;33.39;nan
9261;BME280;4667;42.726;23.252;2023-05-24T13:24:23;94870.34;;;32.26;nan
9261;BME280;4667;42.726;23.252;2023-05-24T13:26:49;94866.44;;;31.57;nan
9261;BME280;4667;42.726;23.252;2023-05-24T13:29:17;94866.38;;;31.44;nan
9261;BME280;4667;42.726;23.252;2023-05-24T13:31:44;94869.34;;;30.58;nan
9261;BME280;4667;42.726;23.252;2023-05-24T13:34:11;94873.34;;;29.90;nan
9261;BME280;4667;42.726;23.252;2023-05-24T13:36:38;94878.31;;;29.07;nan
9261;BME280;4667;42.726;23.252;2023-05-24T13:39:04;94890.44;;;28.58;nan
9261;BME280;4667;42.726;23.252;2023-05-24T13:41:34;94880.25;;;27.86;nan
9261;BME280;4667;42.726;23.252;2023-05-24T13:44:01;94890.59;;;27.30;nan
9261;BME280;4667;42.726;23.252;2023-05-24T13:46:29;94898.13;;;26.90;nan
9261;BME280;4667;42.726;23.252;2023-05-24T13:48:56;94908.78;;;26.44;nan
9261;BME280;4667;42.726;23.252;2023-05-24T13:51:23;94908.28;;;25.66;nan
9261;BME280;4667;42.726;23.252;2023-05-24T13:53:51;94921.25;;;24.76;nan
9261;BME280;4667;42.726;23.252;2023-05-24T13:56:20;94919.91;;;24.46;nan
9261;BME280;4667;42.726;23.252;2023-05-24T13:58:48;94912.56;;;23.88;nan
9261;BME280;4667;42.726;23.252;2023-05-24T14:01:15;94911.69;;;23.47;nan
9261;BME280;4667;42.726;23.252;2023-05-24T14:03:43;94916.25;;;23.06;nan
9261;BME280;4667;42.726;23.252;2023-05-24T14:06:10;94915.91;;;22.74;nan
9261;BME280;4667;42.726;23.252;2023-05-24T14:08:36;94915.44;;;22.52;nan
9261;BME280;4667;42.726;23.252;2023-05-24T14:11:03;94914.16;;;22.38;nan
9261;BME280;4667;42.726;23.252;2023-05-24T14:13:30;94916.47;;;22.40;nan
9261;BME280;4667;42.726;23.252;2023-05-24T14:15:56;94916.22;;;22.29;nan
9261;BME280;4667;42.726;23.252;2023-05-24T14:18:23;94912.88;;;22.25;nan
9261;BME280;4667;42.726;23.252;2023-05-24T14:20:52;94914.16;;;22.15;nan
9261;BME280;4667;42.726;23.252;2023-05-24T14:23:20;94914.22;;;22.06;nan
9261;BME280;4667;42.726;23.252;2023-05-24T14:25:47;94914.44;;;22.40;nan
9261;BME280;4667;42.726;23.252;2023-05-24T14:28:16;94911.38;;;22.62;nan
9261;BME280;4667;42.726;23.252;2023-05-24T14:30:43;94909.81;;;22.85;nan
9261;BME280;4667;42.726;23.252;2023-05-24T14:33:10;94904.78;;;22.98;nan
9261;BME280;4667;42.726;23.252;2023-05-24T14:35:37;94905.94;;;23.21;nan
9261;BME280;4667;42.726;23.252;2023-05-24T14:38:07;94903.25;;;23.12;nan
9261;BME280;4667;42.726;23.252;2023-05-24T14:40:34;94913.75;;;23.23;nan
9261;BME280;4667;42.726;23.252;2023-05-24T14:43:02;94912.31;;;23.27;nan
9261;BME280;4667;42.726;23.252;2023-05-24T14:45:28;94909.94;;;23.49;nan
9261;BME280;4667;42.726;23.252;2023-05-24T14:47:55;94906.66;;;23.66;nan
9261;BME280;4667;42.726;23.252;2023-05-24T14:50:22;94909.50;;;23.86;nan
9261;BME280;4667;42.726;23.252;2023-05-24T14:52:49;94908.69;;;24.00;nan
9261;BME280;4667;42.726;23.252;2023-05-24T14:55:17;94901.56;;;24.14;nan
9261;BME280;4667;42.726;23.252;2023-05-24T14:57:44;94904.94;;;24.38;nan
9261;BME280;4667;42.726;23.252;2023-05-24T15:00:14;94910.69;;;24.55;nan
9261;BME280;4667;42.726;23.252;2023-05-24T15:02:41;94915.72;;;24.76;nan
9261;BME280;4667;42.726;23.252;2023-05-24T15:05:08;94909.09;;;24.89;nan
9261;BME280;4667;42.726;23.252;2023-05-24T15:07:36;94910.53;;;25.36;nan
9261;BME280;4667;42.726;23.252;2023-05-24T15:10:03;94905.09;;;25.78;nan
9261;BME280;4667;42.726;23.252;2023-05-24T15:12:31;94907.88;;;26.15;nan
9261;BME280;4667;42.726;23.252;2023-05-24T15:14:58;94908.19;;;26.28;nan
9261;BME280;4667;42.726;23.252;2023-05-24T15:17:24;94909.34;;;26.11;nan
9261;BME280;4667;42.726;23.252;2023-05-24T15:19:51;94904.50;;;26.06;nan
9261;BME280;4667;42.726;23.252;2023-05-24T15:22:20;94902.41;;;26.26;nan
9261;BME280;4667;42.726;23.252;2023-05-24T15:24:47;94893.22;;;26.15;nan
9261;BME280;4667;42.726;23.252;2023-05-24T15:27:14;94895.28;;;26.20;nan
9261;BME280;4667;42.726;23.252;2023-05-24T15:29:43;94887.78;;;25.94;nan
9261;BME280;4667;42.726;23.252;2023-05-24T15:32:09;94893.91;;;26.04;nan
9261;BME280;4667;42.726;23.252;2023-05-24T15:34:36;94894.19;;;26.06;nan
9261;BME280;4667;42.726;23.252;2023-05-24T15:37:03;94895.16;;;25.97;nan
9261;BME280;4667;42.726;23.252;2023-05-24T15:39:30;94889.94;;;26.16;nan
9261;BME280;4667;42.726;23.252;2023-05-24T15:41:58;94900.88;;;26.25;nan
9261;BME280;4667;42.726;23.252;2023-05-24T15:44:25;94902.34;;;26.21;nan
9261;BME280;4667;42.726;23.252;2023-05-24T15:46:53;94903.66;;;26.25;nan
9261;BME280;4667;42.726;23.252;2023-05-24T15:49:21;94900.53;;;26.18;nan
9261;BME280;4667;42.726;23.252;2023-05-24T15:51:47;94904.59;;;26.22;nan
9261;BME280;4667;42.726;23.252;2023-05-24T15:54:14;94903.53;;;26.51;nan
9261;BME280;4667;42.726;23.252;2023-05-24T15:56:41;94908.69;;;26.80;nan
9261;BME280;4667;42.726;23.252;2023-05-24T15:59:08;94906.91;;;26.83;nan
9261;BME280;4667;42.726;23.252;2023-05-24T16:01:35;94913.06;;;27.04;nan
9261;BME280;4667;42.726;23.252;2023-05-24T16:04:03;94911.03;;;27.04;nan
9261;BME280;4667;42.726;23.252;2023-05-24T16:06:30;94912.44;;;26.72;nan
9261;BME280;4667;42.726;23.252;2023-05-24T16:08:57;94923.25;;;26.59;nan
9261;BME280;4667;42.726;23.252;2023-05-24T16:11:24;94913.66;;;26.60;nan
9261;BME280;4667;42.726;23.252;2023-05-24T16:13:51;94923.41;;;26.38;nan
9261;BME280;4667;42.726;23.252;2023-05-24T16:16:18;94926.72;;;26.06;nan
9261;BME280;4667;42.726;23.252;2023-05-24T16:18:47;94935.81;;;25.69;nan
9261;BME280;4667;42.726;23.252;2023-05-24T16:21:16;94938.38;;;25.47;nan
9261;BME280;4667;42.726;23.252;2023-05-24T16:23:42;94941.84;;;25.42;nan
9261;BME280;4667;42.726;23.252;2023-05-24T16:26:09;94932.69;;;24.84;nan
9261;BME280;4667;42.726;23.252;2023-05-24T16:28:36;94936.00;;;25.08;nan
9261;BME280;4667;42.726;23.252;2023-05-24T16:31:03;94928.13;;;25.01;nan
9261;BME280;4667;42.726;23.252;2023-05-24T16:33:29;94935.88;;;24.77;nan
9261;BME280;4667;42.726;23.252;2023-05-24T16:35:56;94927.56;;;24.57;nan
9261;BME280;4667;42.726;23.252;2023-05-24T16:38:29;94922.25;;;24.33;nan
9261;BME280;4667;42.726;23.252;2023-05-24T16:40:57;94919.63;;;24.24;nan
9261;BME280;4667;42.726;23.252;2023-05-24T16:43:24;94914.94;;;24.15;nan
9261;BME280;4667;42.726;23.252;2023-05-24T16:45:51;94924.69;;;24.11;nan
9261;BME280;4667;42.726;23.252;2023-05-24T16:48:17;94928.47;;;24.13;nan
9261;BME280;4667;42.726;23.252;2023-05-24T16:50:45;94926.63;;;24.05;nan
9261;BME280;4667;42.726;23.252;2023-05-24T16:53:12;94928.91;;;24.06;nan
9261;BME280;4667;42.726;23.252;2023-05-24T16:55:40;94927.56;;;24.01;nan
9261;BME280;4667;42.726;23.252;2023-05-24T16:58:07;94933.09;;;24.01;nan
9261;BME280;4667;42.726;23.252;2023-05-24T17:00:34;94931.78;;;23.97;nan
9261;BME280;4667;42.726;23.252;2023-05-24T17:03:02;94930.88;;;23.85;nan
9261;BME280;4667;42.726;23.252;2023-05-24T17:05:29;94929.25;;;23.79;nan
9261;BME280;4667;42.726;23.252;2023-05-24T17:07:55;94929.84;;;23.68;nan
9261;BME280;4667;42.726;23.252;2023-05-24T17:10:22;94939.97;;;23.71;nan
9261;BME280;4667;42.726;23.252;2023-05-24T17:12:50;94941.22;;;23.70;nan
9261;BME280;4667;42.726;23.252;2023-05-24T17:15:18;94936.81;;;23.64;nan
9261;BME280;4667;42.726;23.252;2023-05-24T17:17:45;94934.53;;;23.62;nan
9261;BME280;4667;42.726;23.252;2023-05-24T17:20:12;94946.56;;;23.59;nan
9261;BME280;4667;42.726;23.252;2023-05-24T17:22:39;94933.88;;;23.52;nan
9261;BME280;4667;42.726;23.252;2023-05-24T17:25:07;94934.16;;;23.54;nan
9261;BME280;4667;42.726;23.252;2023-05-24T17:27:34;94940.34;;;23.49;nan
9261;BME280;4667;42.726;23.252;2023-05-24T17:30:02;94938.72;;;23.43;nan
9261;BME280;4667;42.726;23.252;2023-05-24T17:32:30;94938.91;;;23.39;nan
9261;BME280;4667;42.726;23.252;2023-05-24T17:34:56;94955.41;;;23.34;nan
9261;BME280;4667;42.726;23.252;2023-05-24T17:37:23;94957.47;;;23.24;nan
9261;BME280;4667;42.726;23.252;2023-05-24T17:39:50;94952.06;;;23.15;nan
9261;BME280;4667;42.726;23.252;2023-05-24T17:42:16;94952.41;;;23.08;nan
9261;BME280;4667;42.726;23.252;2023-05-24T17:44:43;94960.31;;;23.00;nan
9261;BME280;4667;42.726;23.252;2023-05-24T17:47:11;94965.56;;;22.98;nan
9261;BME280;4667;42.726;23.252;2023-05-24T17:49:38;94966.59;;;22.86;nan
9261;BME280;4667;42.726;23.252;2023-05-24T17:52:05;94974.78;;;22.71;nan
9261;BME280;4667;42.726;23.252;2023-05-24T17:54:32;94979.28;;;22.69;nan
9261;BME280;4667;42.726;23.252;2023-05-24T17:56:59;94979.34;;;22.60;nan
9261;BME280;4667;42.726;23.252;2023-05-24T17:59:27;94984.50;;;22.43;nan
9261;BME280;4667;42.726;23.252;2023-05-24T18:01:53;94979.78;;;22.34;nan
9261;BME280;4667;42.726;23.252;2023-05-24T18:04:22;94983.97;;;22.30;nan
9261;BME280;4667;42.726;23.252;2023-05-24T18:06:48;94992.00;;;22.19;nan
9261;BME280;4667;42.726;23.252;2023-05-24T18:09:15;94992.97;;;22.16;nan
9261;BME280;4667;42.726;23.252;2023-05-24T18:11:42;95003.44;;;22.03;nan
9261;BME280;4667;42.726;23.252;2023-05-24T18:14:09;95010.94;;;22.02;nan
9261;BME280;4667;42.726;23.252;2023-05-24T18:16:35;95013.88;;;21.89;nan
9261;BME280;4667;42.726;23.252;2023-05-24T18:19:02;95013.75;;;21.84;nan
9261;BME280;4667;42.726;23.252;2023-05-24T18:21:31;95015.00;;;21.74;nan
9261;BME280;4667;42.726;23.252;2023-05-24T18:23:58;95020.44;;;21.41;nan
9261;BME280;4667;42.726;23.252;2023-05-24T18:26:24;95029.16;;;21.39;nan
9261;BME280;4667;42.726;23.252;2023-05-24T18:28:51;95033.59;;;21.46;nan
9261;BME280;4667;42.726;23.252;2023-05-24T18:31:18;95037.59;;;21.36;nan
9261;BME280;4667;42.726;23.252;2023-05-24T18:33:46;95048.00;;;21.23;nan
9261;BME280;4667;42.726;23.252;2023-05-24T18:36:12;95050.13;;;21.09;nan
9261;BME280;4667;42.726;23.252;2023-05-24T18:38:41;95050.13;;;21.09;nan
9261;BME280;4667;42.726;23.252;2023-05-24T18:41:11;95050.75;;;21.04;nan
9261;BME280;4667;42.726;23.252;2023-05-24T18:43:39;95056.56;;;20.97;nan
9261;BME280;4667;42.726;23.252;2023-05-24T18:46:07;95064.03;;;20.88;nan
9261;BME280;4667;42.726;23.252;2023-05-24T18:48:37;95058.22;;;20.86;nan
9261;BME280;4667;42.726;23.252;2023-05-24T18:51:05;95069.22;;;20.86;nan
9261;BME280;4667;42.726;23.252;2023-05-24T18:53:32;95065.72;;;20.76;nan
9261;BME280;4667;42.726;23.252;2023-05-24T18:56:00;95067.22;;;20.68;nan
9261;BME280;4667;42.726;23.252;2023-05-24T18:58:27;95068.59;;;20.63;nan
9261;BME280;4667;42.726;23.252;2023-05-24T19:00:54;95068.75;;;20.60;nan
9261;BME280;4667;42.726;23.252;2023-05-24T19:03:21;95076.25;;;20.59;nan
9261;BME280;4667;42.726;23.252;2023-05-24T19:05:48;95084.44;;;20.50;nan
9261;BME280;4667;42.726;23.252;2023-05-24T19:08:18;95079.44;;;20.49;nan
9261;BME280;4667;42.726;23.252;2023-05-24T19:10:45;95082.78;;;20.44;nan
9261;BME280;4667;42.726;23.252;2023-05-24T19:13:14;95096.84;;;20.46;nan
9261;BME280;4667;42.726;23.252;2023-05-24T19:15:41;95093.91;;;20.40;nan
9261;BME280;4667;42.726;23.252;2023-05-24T19:18:08;95093.41;;;20.32;nan
9261;BME280;4667;42.726;23.252;2023-05-24T19:20:35;95098.47;;;20.34;nan
9261;BME280;4667;42.726;23.252;2023-05-24T19:23:02;95099.94;;;20.26;nan
9261;BME280;4667;42.726;23.252;2023-05-24T19:25:29;95102.84;;;20.22;nan
9261;BME280;4667;42.726;23.252;2023-05-24T19:28:02;95104.63;;;20.16;nan
9261;BME280;4667;42.726;23.252;2023-05-24T19:30:31;95101.13;;;20.16;nan
9261;BME280;4667;42.726;23.252;2023-05-24T19:32:58;95107.53;;;20.13;nan
9261;BME280;4667;42.726;23.252;2023-05-24T19:35:25;95106.78;;;20.12;nan
9261;BME280;4667;42.726;23.252;2023-05-24T19:37:52;95107.34;;;20.07;nan
9261;BME280;4667;42.726;23.252;2023-05-24T19:40:20;95110.09;;;20.07;nan
9261;BME280;4667;42.726;23.252;2023-05-24T19:42:47;95107.03;;;20.05;nan
9261;BME280;4667;42.726;23.252;2023-05-24T19:45:17;95101.53;;;20.05;nan
9261;BME280;4667;42.726;23.252;2023-05-24T19:47:45;95109.44;;;19.94;nan
9261;BME280;4667;42.726;23.252;2023-05-24T19:50:13;95101.00;;;19.88;nan
9261;BME280;4667;42.726;23.252;2023-05-24T19:52:40;95102.47;;;19.80;nan
9261;BME280;4667;42.726;23.252;2023-05-24T19:55:08;95102.63;;;19.77;nan
9261;BME280;4667;42.726;23.252;2023-05-24T19:57:35;95106.25;;;19.74;nan
9261;BME280;4667;42.726;23.252;2023-05-24T20:00:03;95102.09;;;19.69;nan
9261;BME280;4667;42.726;23.252;2023-05-24T20:02:30;95105.09;;;19.62;nan
9261;BME280;4667;42.726;23.252;2023-05-24T20:04:59;95098.03;;;19.52;nan
9261;BME280;4667;42.726;23.252;2023-05-24T20:07:26;95102.31;;;19.53;nan
9261;BME280;4667;42.726;23.252;2023-05-24T20:09:53;95113.97;;;19.44;nan
9261;BME280;4667;42.726;23.252;2023-05-24T20:12:21;95116.94;;;19.50;nan
9261;BME280;4667;42.726;23.252;2023-05-24T20:14:48;95113.31;;;19.40;nan
9261;BME280;4667;42.726;23.252;2023-05-24T20:17:15;95114.34;;;19.34;nan
9261;BME280;4667;42.726;23.252;2023-05-24T20:19:42;95110.19;;;19.29;nan
9261;BME280;4667;42.726;23.252;2023-05-24T20:22:11;95115.41;;;19.14;nan
9261;BME280;4667;42.726;23.252;2023-05-24T20:24:39;95117.06;;;19.12;nan
9261;BME280;4667;42.726;23.252;2023-05-24T20:27:08;95114.00;;;19.10;nan
9261;BME280;4667;42.726;23.252;2023-05-24T20:29:34;95115.19;;;19.09;nan
9261;BME280;4667;42.726;23.252;2023-05-24T20:32:02;95110.84;;;18.99;nan
9261;BME280;4667;42.726;23.252;2023-05-24T20:34:28;95108.38;;;18.79;nan
9261;BME280;4667;42.726;23.252;2023-05-24T20:36:56;95111.41;;;18.94;nan
9261;BME280;4667;42.726;23.252;2023-05-24T20:39:24;95115.25;;;18.84;nan
9261;BME280;4667;42.726;23.252;2023-05-24T20:41:51;95118.38;;;18.60;nan
9261;BME280;4667;42.726;23.252;2023-05-24T20:44:18;95118.16;;;18.67;nan
9261;BME280;4667;42.726;23.252;2023-05-24T20:46:45;95121.34;;;18.66;nan
9261;BME280;4667;42.726;23.252;2023-05-24T20:49:12;95118.06;;;18.58;nan
9261;BME280;4667;42.726;23.252;2023-05-24T20:51:39;95122.47;;;18.56;nan
9261;BME280;4667;42.726;23.252;2023-05-24T20:54:06;95130.91;;;18.61;nan
9261;BME280;4667;42.726;23.252;2023-05-24T20:56:36;95133.41;;;18.68;nan
9261;BME280;4667;42.726;23.252;2023-05-24T20:59:02;95138.78;;;18.59;nan
9261;BME280;4667;42.726;23.252;2023-05-24T21:01:29;95130.31;;;18.54;nan
9261;BME280;4667;42.726;23.252;2023-05-24T21:03:56;95143.81;;;18.48;nan
9261;BME280;4667;42.726;23.252;2023-05-24T21:06:23;95139.44;;;18.38;nan
9261;BME280;4667;42.726;23.252;2023-05-24T21:08:50;95137.03;;;18.40;nan
9261;BME280;4667;42.726;23.252;2023-05-24T21:11:17;95144.28;;;18.34;nan
9261;BME280;4667;42.726;23.252;2023-05-24T21:13:47;95139.34;;;18.29;nan
9261;BME280;4667;42.726;23.252;2023-05-24T21:16:15;95140.00;;;18.20;nan
9261;BME280;4667;42.726;23.252;2023-05-24T21:18:42;95147.44;;;18.20;nan
9261;BME280;4667;42.726;23.252;2023-05-24T21:21:09;95142.31;;;18.22;nan
9261;BME280;4667;42.726;23.252;2023-05-24T21:23:37;95139.88;;;18.24;nan
9261;BME280;4667;42.726;23.252;2023-05-24T21:26:04;95146.34;;;18.17;nan
9261;BME280;4667;42.726;23.252;2023-05-24T21:28:31;95138.88;;;18.18;nan
9261;BME280;4667;42.726;23.252;2023-05-24T21:31:00;95140.41;;;18.19;nan
9261;BME280;4667;42.726;23.252;2023-05-24T21:33:27;95153.91;;;18.26;nan
9261;BME280;4667;42.726;23.252;2023-05-24T21:35:54;95159.19;;;18.33;nan
9261;BME280;4667;42.726;23.252;2023-05-24T21:38:22;95153.16;;;18.38;nan
9261;BME280;4667;42.726;23.252;2023-05-24T21:40:49;95154.69;;;18.39;nan
9261;BME280;4667;42.726;23.252;2023-05-24T21:43:16;95156.31;;;18.36;nan
9261;BME280;4667;42.726;23.252;2023-05-24T21:45:43;95155.34;;;18.30;nan
9261;BME280;4667;42.726;23.252;2023-05-24T21:48:12;95158.75;;;18.22;nan
9261;BME280;4667;42.726;23.252;2023-05-24T21:50:38;95157.97;;;18.21;nan
9261;BME280;4667;42.726;23.252;2023-05-24T21:53:05;95152.06;;;18.23;nan
9261;BME280;4667;42.726;23.252;2023-05-24T21:55:33;95160.50;;;18.16;nan
9261;BME280;4667;42.726;23.252;2023-05-24T21:58:00;95160.38;;;18.07;nan
9261;BME280;4667;42.726;23.252;2023-05-24T22:00:26;95160.06;;;18.05;nan
9261;BME280;4667;42.726;23.252;2023-05-24T22:02:54;95163.09;;;18.07;nan
9261;BME280;4667;42.726;23.252;2023-05-24T22:05:22;95172.75;;;17.99;nan
9261;BME280;4667;42.726;23.252;2023-05-24T22:07:49;95163.09;;;17.94;nan
9261;BME280;4667;42.726;23.252;2023-05-24T22:10:16;95163.19;;;17.90;nan
9261;BME280;4667;42.726;23.252;2023-05-24T22:12:44;95164.03;;;17.75;nan
9261;BME280;4667;42.726;23.252;2023-05-24T22:15:12;95167.00;;;17.80;nan
9261;BME280;4667;42.726;23.252;2023-05-24T22:17:39;95165.88;;;17.65;nan
9261;BME280;4667;42.726;23.252;2023-05-24T22:20:07;95165.22;;;17.45;nan
9261;BME280;4667;42.726;23.252;2023-05-24T22:22:36;95166.25;;;17.51;nan
9261;BME280;4667;42.726;23.252;2023-05-24T22:25:05;95171.56;;;17.42;nan
9261;BME280;4667;42.726;23.252;2023-05-24T22:27:33;95172.28;;;17.30;nan
9261;BME280;4667;42.726;23.252;2023-05-24T22:30:00;95171.00;;;17.18;nan
9261;BME280;4667;42.726;23.252;2023-05-24T22:32:27;95175.31;;;17.03;nan
9261;BME280;4667;42.726;23.252;2023-05-24T22:34:54;95169.41;;;17.04;nan
9261;BME280;4667;42.726;23.252;2023-05-24T22:37:20;95170.09;;;17.08;nan
9261;BME280;4667;42.726;23.252;2023-05-24T22:39:49;95165.47;;;17.05;nan
9261;BME280;4667;42.726;23.252;2023-05-24T22:42:16;95171.56;;;16.97;nan
9261;BME280;4667;42.726;23.252;2023-05-24T22:44:43;95169.09;;;17.02;nan
9261;BME280;4667;42.726;23.252;2023-05-24T22:47:11;95171.63;;;16.93;nan
9261;BME280;4667;42.726;23.252;2023-05-24T22:49:41;95169.69;;;16.61;nan
9261;BME280;4667;42.726;23.252;2023-05-24T22:52:08;95174.03;;;16.75;nan
9261;BME280;4667;42.726;23.252;2023-05-24T22:54:36;95169.00;;;16.73;nan
9261;BME280;4667;42.726;23.252;2023-05-24T22:57:04;95163.34;;;16.81;nan
9261;BME280;4667;42.726;23.252;2023-05-24T22:59:31;95161.16;;;16.92;nan
9261;BME280;4667;42.726;23.252;2023-05-24T23:01:58;95157.53;;;16.95;nan
9261;BME280;4667;42.726;23.252;2023-05-24T23:04:25;95158.47;;;16.88;nan
9261;BME280;4667;42.726;23.252;2023-05-24T23:06:53;95156.00;;;16.94;nan
9261;BME280;4667;42.726;23.252;2023-05-24T23:09:21;95156.09;;;16.90;nan
9261;BME280;4667;42.726;23.252;2023-05-24T23:11:53;95166.34;;;16.86;nan
9261;BME280;4667;42.726;23.252;2023-05-24T23:14:24;95168.38;;;16.98;nan
9261;BME280;4667;42.726;23.252;2023-05-24T23:16:50;95157.72;;;16.88;nan
9261;BME280;4667;42.726;23.252;2023-05-24T23:19:17;95157.81;;;16.84;nan
9261;BME280;4667;42.726;23.252;2023-05-24T23:21:44;95157.47;;;16.82;nan
9261;BME280;4667;42.726;23.252;2023-05-24T23:24:10;95153.63;;;16.80;nan
9261;BME280;4667;42.726;23.252;2023-05-24T23:26:39;95156.53;;;16.72;nan
9261;BME280;4667;42.726;23.252;2023-05-24T23:29:06;95155.41;;;16.70;nan
9261;BME280;4667;42.726;23.252;2023-05-24T23:31:34;95153.16;;;16.49;nan
9261;BME280;4667;42.726;23.252;2023-05-24T23:34:01;95149.91;;;16.54;nan
9261;BME280;4667;42.726;23.252;2023-05-24T23:36:27;95153.16;;;16.49;nan
9261;BME280;4667;42.726;23.252;2023-05-24T23:38:54;95159.03;;;16.31;nan
9261;BME280;4667;42.726;23.252;2023-05-24T23:41:21;95158.16;;;16.18;nan
9261;BME280;4667;42.726;23.252;2023-05-24T23:43:47;95157.00;;;15.99;nan